Time;durP1;ratioP1;P1;durP2;ratioP2;P2;SDS_P1;SDS_P2;PMS_P1;PMS_P2;Temp;Humidity;BMP_temperature;BMP_pressure;BME280_temperature;BME280_humidity;BME280_pressure;Samples;Min_cycle;Max_cycle;Signal;HPM_P1;HPM_P2
2023/06/24 00:00:33;;;;;;;16.10;14.25;;;15.50;90.10;;;;;;5050626;28;20247;-50
2023/06/24 00:03:02;;;;;;;15.75;14.25;;;15.50;90.10;;;;;;5052769;28;20114;-45
2023/06/24 00:05:31;;;;;;;15.77;14.13;;;15.50;90.20;;;;;;5053323;28;20040;-44
2023/06/24 00:08:06;;;;;;;18.30;15.20;;;15.40;90.20;;;;;;5051560;28;20146;-46
2023/06/24 00:10:36;;;;;;;22.80;15.18;;;15.40;90.20;;;;;;5053601;28;20401;-46
2023/06/24 00:13:02;;;;;;;16.60;13.70;;;15.40;90.30;;;;;;5052385;28;20025;-46
2023/06/24 00:15:30;;;;;;;17.02;15.23;;;15.40;90.40;;;;;;5052501;28;20036;-46
2023/06/24 00:18:04;;;;;;;17.15;15.50;;;15.30;90.30;;;;;;5053175;28;20024;-44
2023/06/24 00:20:31;;;;;;;19.40;15.25;;;15.30;90.40;;;;;;5053228;28;20025;-48
2023/06/24 00:22:59;;;;;;;17.15;15.18;;;15.30;90.40;;;;;;5051074;28;20040;-44
2023/06/24 00:25:26;;;;;;;17.90;16.10;;;15.30;90.50;;;;;;5053031;28;20032;-45
2023/06/24 00:27:53;;;;;;;19.08;15.93;;;15.30;90.40;;;;;;5053383;28;20036;-47
2023/06/24 00:30:22;;;;;;;17.70;15.68;;;15.20;90.60;;;;;;5050909;28;20025;-44
2023/06/24 00:32:49;;;;;;;17.45;15.45;;;15.30;90.70;;;;;;5067588;28;20032;-46
2023/06/24 00:35:18;;;;;;;20.52;15.82;;;15.20;90.70;;;;;;5051318;28;20021;-44
2023/06/24 00:37:46;;;;;;;19.88;16.40;;;15.20;90.70;;;;;;5051213;28;20033;-45
2023/06/24 00:40:18;;;;;;;17.48;15.55;;;15.20;90.70;;;;;;5053285;28;20037;-44
2023/06/24 00:42:46;;;;;;;17.45;15.75;;;15.10;90.60;;;;;;5050528;28;20036;-46
2023/06/24 00:45:13;;;;;;;16.25;14.02;;;15.10;90.80;;;;;;5051490;28;20033;-46
2023/06/24 00:47:39;;;;;;;17.73;15.73;;;15.10;90.90;;;;;;5031660;28;20033;-45
2023/06/24 00:50:08;;;;;;;16.70;14.90;;;15.10;90.80;;;;;;5032945;28;20030;-46
2023/06/24 00:52:37;;;;;;;16.60;14.82;;;15.00;90.90;;;;;;5046499;28;20430;-44
2023/06/24 00:55:06;;;;;;;16.23;14.50;;;15.00;90.90;;;;;;5052935;28;20024;-44
2023/06/24 00:57:37;;;;;;;18.40;15.20;;;15.00;90.90;;;;;;5052968;28;20508;-46
2023/06/24 01:00:14;;;;;;;19.83;15.23;;;15.00;90.90;;;;;;5052567;28;20293;-44
2023/06/24 01:02:42;;;;;;;17.63;15.35;;;15.00;91.00;;;;;;5052729;28;20032;-44
2023/06/24 01:05:12;;;;;;;20.83;15.63;;;15.00;90.80;;;;;;5052754;28;20343;-43
2023/06/24 01:07:40;;;;;;;17.58;15.40;;;14.90;90.90;;;;;;5050574;28;20058;-43
2023/06/24 01:10:08;;;;;;;20.27;14.93;;;14.90;90.80;;;;;;5052897;28;20114;-44
2023/06/24 01:12:39;;;;;;;18.45;16.63;;;14.90;90.80;;;;;;5052788;28;20389;-45
2023/06/24 01:15:11;;;;;;;20.17;16.88;;;14.90;90.90;;;;;;5067771;28;20032;-44
2023/06/24 01:18:08;;;;;;;16.83;15.00;;;14.90;90.90;;;;;;5051209;28;20052;-44
2023/06/24 01:21:10;;;;;;;19.25;16.67;;;14.90;91.00;;;;;;5036227;28;20036;-44
2023/06/24 01:24:19;;;;;;;29.08;15.23;;;14.80;90.80;;;;;;5052865;28;20020;-45
2023/06/24 01:27:19;;;;;;;17.23;15.23;;;14.80;91.00;;;;;;5019421;28;20056;-44
2023/06/24 01:30:13;;;;;;;17.90;16.20;;;14.80;91.00;;;;;;5051694;28;20040;-48
2023/06/24 01:32:55;;;;;;;19.50;16.00;;;14.80;90.90;;;;;;5052596;28;20108;-45
2023/06/24 01:35:31;;;;;;;18.00;15.85;;;14.80;91.10;;;;;;5051008;28;20461;-45
2023/06/24 01:38:01;;;;;;;19.13;16.60;;;14.70;91.20;;;;;;5031225;28;20470;-45
2023/06/24 01:40:28;;;;;;;;;;;14.70;91.20;;;;;;5049845;28;20039;-44
2023/06/24 01:43:01;;;;;;;18.42;16.45;;;14.70;91.30;;;;;;5049977;28;20258;-46
2023/06/24 01:45:33;;;;;;;17.98;15.57;;;14.70;91.10;;;;;;5050812;28;20138;-45
2023/06/24 01:48:20;;;;;;;18.80;16.30;;;14.70;91.30;;;;;;5067836;28;20061;-44
2023/06/24 01:50:53;;;;;;;18.10;15.57;;;14.70;91.30;;;;;;5048262;28;20021;-46
2023/06/24 01:53:22;;;;;;;17.63;15.77;;;14.70;91.20;;;;;;5052070;28;20033;-46
2023/06/24 01:55:51;;;;;;;16.35;14.73;;;14.60;91.20;;;;;;5050741;28;20033;-47
2023/06/24 01:58:21;;;;;;;17.77;14.38;;;14.60;91.30;;;;;;5068180;28;20051;-44
2023/06/24 02:00:57;;;;;;;;;;;14.70;91.20;;;;;;5049809;28;20904;-46
2023/06/24 02:03:25;;;;;;;19.00;15.07;;;14.60;91.10;;;;;;5050879;28;19916;-46
2023/06/24 02:05:53;;;;;;;16.92;15.25;;;14.60;91.30;;;;;;5067054;28;20024;-47
2023/06/24 02:08:21;;;;;;;17.08;15.32;;;14.60;91.30;;;;;;5050392;28;20544;-47
2023/06/24 02:10:49;;;;;;;18.05;15.23;;;14.60;91.30;;;;;;5067321;28;20061;-44
2023/06/24 02:13:16;;;;;;;18.20;16.10;;;14.60;91.30;;;;;;5054323;28;20068;-45
2023/06/24 02:15:44;;;;;;;16.20;14.60;;;14.60;91.30;;;;;;5055378;28;20112;-45
2023/06/24 02:18:15;;;;;;;16.13;14.52;;;14.50;91.20;;;;;;5054915;28;20053;-45
2023/06/24 02:20:44;;;;;;;16.85;15.05;;;14.50;91.20;;;;;;5056018;28;20111;-49
2023/06/24 02:23:21;;;;;;;16.75;15.05;;;14.50;91.10;;;;;;5069175;28;20401;-44
2023/06/24 02:25:47;;;;;;;16.83;14.32;;;14.40;91.10;;;;;;5055363;28;20028;-45
2023/06/24 02:28:15;;;;;;;16.13;14.48;;;14.40;91.30;;;;;;5054581;28;20056;-47
2023/06/24 02:30:45;;;;;;;14.77;13.18;;;14.50;91.20;;;;;;5054986;28;20120;-47
2023/06/24 02:33:13;;;;;;;15.07;13.52;;;14.40;91.20;;;;;;5058458;28;20036;-44
2023/06/24 02:35:41;;;;;;;17.10;14.73;;;14.40;91.20;;;;;;5054549;28;20090;-45
2023/06/24 02:38:09;;;;;;;17.45;14.35;;;14.40;91.10;;;;;;5052635;28;20403;-44
2023/06/24 02:40:36;;;;;;;15.13;13.63;;;14.40;91.20;;;;;;5055302;28;20040;-44
2023/06/24 02:43:02;;;;;;;16.23;13.45;;;14.40;91.20;;;;;;5054457;28;20458;-44
2023/06/24 02:45:38;;;;;;;15.02;13.38;;;14.40;91.20;;;;;;5052550;28;20061;-44
2023/06/24 02:48:11;;;;;;;14.60;12.55;;;14.40;91.20;;;;;;5055247;28;20736;-45
2023/06/24 02:50:43;;;;;;;16.20;13.75;;;14.30;91.20;;;;;;5052476;28;20041;-44
2023/06/24 02:53:12;;;;;;;17.70;14.18;;;14.30;91.20;;;;;;5053040;28;20116;-43
2023/06/24 02:55:45;;;;;;;15.48;13.82;;;14.30;91.30;;;;;;5055516;28;20017;-44
2023/06/24 02:58:11;;;;;;;16.58;14.48;;;14.30;91.40;;;;;;5066474;28;20331;-44
2023/06/24 03:00:37;;;;;;;15.05;13.55;;;14.30;91.40;;;;;;5052147;28;20048;-44
2023/06/24 03:03:07;;;;;;;14.40;12.90;;;14.30;91.50;;;;;;5054806;28;20043;-44
2023/06/24 03:05:36;;;;;;;15.35;13.60;;;14.40;91.60;;;;;;5070529;28;20052;-43
2023/06/24 03:08:07;;;;;;;15.27;13.68;;;14.30;91.50;;;;;;5052560;28;20097;-42
2023/06/24 03:10:38;;;;;;;15.80;14.20;;;14.40;91.40;;;;;;5054457;28;20511;-44
2023/06/24 03:13:07;;;;;;;13.93;12.18;;;14.30;91.40;;;;;;5053645;28;20032;-42
2023/06/24 03:15:36;;;;;;;14.68;13.23;;;14.30;91.60;;;;;;5053015;28;20025;-44
2023/06/24 03:18:01;;;;;;;13.90;12.40;;;14.30;91.50;;;;;;5053472;28;20029;-43
2023/06/24 03:20:37;;;;;;;14.32;12.75;;;14.30;91.50;;;;;;5054238;28;20027;-44
2023/06/24 03:23:05;;;;;;;15.90;13.52;;;14.40;91.60;;;;;;5051682;28;20037;-43
2023/06/24 03:25:36;;;;;;;14.35;12.95;;;14.30;91.60;;;;;;5053781;28;20048;-43
2023/06/24 03:28:07;;;;;;;15.18;13.30;;;14.30;91.70;;;;;;5051807;28;20036;-44
2023/06/24 03:30:33;;;;;;;15.13;13.57;;;14.30;91.60;;;;;;5053108;28;20033;-46
2023/06/24 03:32:59;;;;;;;13.85;12.35;;;14.30;91.60;;;;;;5054093;28;20094;-46
2023/06/24 03:35:24;;;;;;;14.05;12.55;;;14.40;91.50;;;;;;5053545;28;20040;-48
2023/06/24 03:37:55;;;;;;;13.38;11.98;;;14.30;91.40;;;;;;5052584;28;20017;-43
2023/06/24 03:40:21;;;;;;;13.43;12.02;;;14.30;91.60;;;;;;5054571;28;20029;-44
2023/06/24 03:42:49;;;;;;;13.10;11.77;;;14.40;91.60;;;;;;5035701;28;20025;-44
2023/06/24 03:45:20;;;;;;;14.30;12.80;;;14.40;91.50;;;;;;5053651;28;20048;-45
2023/06/24 03:47:47;;;;;;;14.85;13.35;;;14.40;91.50;;;;;;5066534;28;20029;-44
2023/06/24 03:50:13;;;;;;;14.20;12.75;;;14.40;91.70;;;;;;5052536;28;20033;-45
2023/06/24 03:52:41;;;;;;;15.50;12.35;;;14.40;91.60;;;;;;5053526;28;20399;-44
2023/06/24 03:55:07;;;;;;;13.75;12.35;;;14.40;91.60;;;;;;5054073;28;20112;-44
2023/06/24 03:57:36;;;;;;;14.25;12.23;;;14.40;91.70;;;;;;5052996;28;20151;-45
2023/06/24 04:00:17;;;;;;;13.50;12.10;;;14.40;91.70;;;;;;5053939;28;20041;-45
2023/06/24 04:02:45;;;;;;;14.15;11.80;;;14.50;91.70;;;;;;5052015;28;20037;-45
2023/06/24 04:05:10;;;;;;;11.75;10.55;;;14.50;91.70;;;;;;5052641;28;20025;-44
2023/06/24 04:07:40;;;;;;;12.45;11.15;;;14.50;91.60;;;;;;5052483;28;20033;-45
2023/06/24 04:10:10;;;;;;;14.07;12.68;;;14.50;91.70;;;;;;5050096;28;20037;-46
2023/06/24 04:12:39;;;;;;;15.50;13.85;;;14.60;91.60;;;;;;5042501;28;20143;-42
2023/06/24 04:15:06;;;;;;;16.27;12.82;;;14.60;91.60;;;;;;5051885;28;20055;-44
2023/06/24 04:17:33;;;;;;;13.55;12.25;;;14.60;91.60;;;;;;5052215;28;20061;-44
2023/06/24 04:20:04;;;;;;;16.92;15.10;;;14.60;91.70;;;;;;5054099;28;20025;-45
2023/06/24 04:22:30;;;;;;;14.07;12.63;;;14.70;91.80;;;;;;5052024;28;20033;-44
2023/06/24 04:24:57;;;;;;;15.98;14.25;;;14.70;91.90;;;;;;5051683;28;20391;-42
2023/06/24 04:27:22;;;;;;;14.98;13.45;;;14.80;92.00;;;;;;5034457;28;20675;-44
2023/06/24 04:29:49;;;;;;;14.65;13.10;;;14.90;92.00;;;;;;5044629;28;20025;-43
2023/06/24 04:32:20;;;;;;;16.95;14.68;;;14.90;92.10;;;;;;5052214;28;20089;-43
2023/06/24 04:34:47;;;;;;;14.18;12.68;;;14.90;92.10;;;;;;5051134;28;20025;-44
2023/06/24 04:37:13;;;;;;;16.48;14.75;;;15.00;92.10;;;;;;5051563;28;20051;-47
2023/06/24 04:39:41;;;;;;;13.88;12.45;;;15.20;92.10;;;;;;5063437;28;20079;-44
2023/06/24 04:42:08;;;;;;;15.70;13.88;;;15.20;92.00;;;;;;5048558;28;20802;-45
2023/06/24 04:44:41;;;;;;;13.23;11.95;;;15.30;92.00;;;;;;5050766;28;20363;-44
2023/06/24 04:47:09;;;;;;;14.85;13.27;;;15.40;91.80;;;;;;5050188;28;20111;-43
2023/06/24 04:49:36;;;;;;;14.52;12.90;;;15.40;91.50;;;;;;5051722;28;20025;-46
2023/06/24 04:52:03;;;;;;;15.57;13.57;;;15.40;91.40;;;;;;5053157;28;20021;-48
2023/06/24 04:54:31;;;;;;;15.63;12.90;;;15.40;91.40;;;;;;5050898;28;20029;-46
2023/06/24 04:56:57;;;;;;;14.48;12.18;;;15.40;91.40;;;;;;5053520;28;20033;-45
2023/06/24 04:59:25;;;;;;;15.40;13.90;;;15.40;91.40;;;;;;5052319;28;20124;-44
2023/06/24 05:01:55;;;;;;;14.07;12.63;;;15.40;91.50;;;;;;5050993;28;20040;-43
2023/06/24 05:04:22;;;;;;;15.50;12.20;;;15.40;91.50;;;;;;5035858;28;20033;-43
2023/06/24 05:06:51;;;;;;;15.50;13.70;;;15.40;91.60;;;;;;5053044;28;20033;-42
2023/06/24 05:09:18;;;;;;;13.85;12.50;;;15.40;91.60;;;;;;5050130;28;20041;-43
2023/06/24 05:11:46;;;;;;;16.45;14.73;;;15.40;91.80;;;;;;5050589;28;20405;-42
2023/06/24 05:14:14;;;;;;;16.40;13.52;;;15.40;91.80;;;;;;5049595;28;20032;-42
2023/06/24 05:16:42;;;;;;;19.13;14.02;;;15.40;91.80;;;;;;5050140;28;20086;-44
2023/06/24 05:19:09;;;;;;;19.88;15.02;;;15.40;91.80;;;;;;5052724;28;20021;-43
2023/06/24 05:21:35;;;;;;;18.15;14.38;;;15.50;92.00;;;;;;5051909;28;20021;-42
2023/06/24 05:24:04;;;;;;;16.38;14.38;;;15.60;92.00;;;;;;5050846;28;20027;-42
2023/06/24 05:26:30;;;;;;;14.48;12.95;;;15.60;92.10;;;;;;5049822;28;20025;-42
2023/06/24 05:28:59;;;;;;;14.77;13.15;;;15.60;92.10;;;;;;5052228;28;20492;-43
2023/06/24 05:31:27;;;;;;;16.30;14.73;;;15.70;92.30;;;;;;5050292;28;20455;-44
2023/06/24 05:33:54;;;;;;;19.75;14.82;;;15.80;92.30;;;;;;5049513;28;20040;-44
2023/06/24 05:36:21;;;;;;;14.45;13.05;;;15.90;92.30;;;;;;5052281;28;20032;-44
2023/06/24 05:38:48;;;;;;;17.63;15.52;;;16.00;92.20;;;;;;5050123;28;20025;-43
2023/06/24 05:41:15;;;;;;;18.55;16.70;;;16.10;92.10;;;;;;5050080;28;20017;-46
2023/06/24 05:43:43;;;;;;;17.15;15.43;;;16.20;91.90;;;;;;5051962;28;20028;-45
2023/06/24 05:46:11;;;;;;;17.23;15.43;;;16.30;92.00;;;;;;5051359;28;20036;-43
2023/06/24 05:48:40;;;;;;;19.40;17.50;;;16.40;91.90;;;;;;5055079;28;20048;-46
2023/06/24 05:51:05;;;;;;;17.52;15.00;;;16.40;92.00;;;;;;5053538;28;20424;-43
2023/06/24 05:53:32;;;;;;;18.73;16.73;;;16.60;92.20;;;;;;5055364;28;20029;-46
2023/06/24 05:56:04;;;;;;;18.90;14.93;;;16.90;91.90;;;;;;5056314;28;20074;-46
2023/06/24 05:58:30;;;;;;;16.30;14.63;;;17.20;91.60;;;;;;5053120;28;20025;-44
2023/06/24 06:01:00;;;;;;;14.95;10.75;;;17.40;90.50;;;;;;5054785;28;20027;-45
2023/06/24 06:03:30;;;;;;;17.55;15.20;;;17.70;90.70;;;;;;5053128;28;20104;-44
2023/06/24 06:05:57;;;;;;;13.25;11.45;;;17.90;89.50;;;;;;5052127;28;20033;-42
2023/06/24 06:08:24;;;;;;;15.30;13.80;;;18.10;88.90;;;;;;5052403;28;20037;-45
2023/06/24 06:10:52;;;;;;;13.65;12.25;;;18.20;87.70;;;;;;5053790;28;20033;-43
2023/06/24 06:13:19;;;;;;;15.88;13.13;;;18.30;88.20;;;;;;5055223;28;20071;-49
2023/06/24 06:15:47;;;;;;;10.80;9.57;;;18.50;87.40;;;;;;5054325;28;20021;-45
2023/06/24 06:18:16;;;;;;;15.98;12.15;;;18.90;87.50;;;;;;5054153;28;20036;-46
2023/06/24 06:20:45;;;;;;;12.77;10.70;;;19.40;86.70;;;;;;5055314;28;20044;-44
2023/06/24 06:23:12;;;;;;;11.70;10.50;;;19.50;85.10;;;;;;5054922;28;20039;-45
2023/06/24 06:25:40;;;;;;;10.45;9.45;;;19.40;84.70;;;;;;5054312;28;20079;-46
2023/06/24 06:28:07;;;;;;;11.15;10.07;;;19.60;85.10;;;;;;5050051;28;20654;-47
2023/06/24 06:30:34;;;;;;;15.27;12.57;;;19.60;84.20;;;;;;5052963;28;20071;-46
2023/06/24 06:33:01;;;;;;;11.02;9.10;;;19.50;84.10;;;;;;5051756;28;20740;-46
2023/06/24 06:35:28;;;;;;;12.77;10.90;;;19.50;84.40;;;;;;5054042;28;20104;-46
2023/06/24 06:37:54;;;;;;;11.95;10.77;;;19.60;84.60;;;;;;5051909;28;20040;-47
2023/06/24 06:40:31;;;;;;;11.00;9.90;;;19.70;83.60;;;;;;5051115;28;20017;-45
2023/06/24 06:42:57;;;;;;;9.63;8.63;;;19.80;83.80;;;;;;5052869;28;20029;-48
2023/06/24 06:45:23;;;;;;;9.55;7.65;;;19.90;83.00;;;;;;5053316;28;20118;-47
2023/06/24 06:47:50;;;;;;;10.05;8.68;;;19.80;82.90;;;;;;5053464;28;20040;-46
2023/06/24 06:50:19;;;;;;;10.75;7.97;;;19.90;81.80;;;;;;5054845;28;20040;-46
2023/06/24 06:52:45;;;;;;;11.05;8.30;;;19.90;82.00;;;;;;5053814;28;20025;-48
2023/06/24 06:55:11;;;;;;;9.63;8.63;;;19.90;81.30;;;;;;5052840;28;20028;-45
2023/06/24 06:57:37;;;;;;;8.82;7.50;;;20.20;81.80;;;;;;5052804;28;20438;-47
2023/06/24 07:00:05;;;;;;;9.00;5.57;;;20.20;78.70;;;;;;5053580;28;20040;-48
2023/06/24 07:02:32;;;;;;;7.47;5.75;;;20.30;77.30;;;;;;5068085;28;20041;-47
2023/06/24 07:05:00;;;;;;;7.82;5.65;;;20.40;77.50;;;;;;5053379;28;20071;-49
2023/06/24 07:07:26;;;;;;;11.03;5.23;;;20.60;77.90;;;;;;5054061;28;20025;-49
2023/06/24 07:09:53;;;;;;;6.75;5.60;;;20.90;76.60;;;;;;5051839;28;20456;-50
2023/06/24 07:12:20;;;;;;;8.32;6.85;;;21.20;76.40;;;;;;5053753;28;20427;-50
2023/06/24 07:14:48;;;;;;;9.23;6.38;;;21.20;74.10;;;;;;5045989;28;20040;-47
2023/06/24 07:17:18;;;;;;;7.03;6.18;;;21.40;73.60;;;;;;5049699;28;20013;-47
2023/06/24 07:19:49;;;;;;;7.65;6.78;;;21.50;73.00;;;;;;5045738;28;20049;-47
2023/06/24 07:22:16;;;;;;;10.30;7.03;;;21.70;70.70;;;;;;5051567;28;20435;-48
2023/06/24 07:24:42;;;;;;;7.78;6.32;;;21.80;68.90;;;;;;5052222;28;20036;-48
2023/06/24 07:27:09;;;;;;;6.90;5.53;;;21.90;69.50;;;;;;5052244;28;20043;-48
2023/06/24 07:29:36;;;;;;;9.13;6.35;;;22.10;69.00;;;;;;5050942;28;20029;-48
2023/06/24 07:32:04;;;;;;;7.43;4.75;;;22.20;69.10;;;;;;5052517;28;20433;-48
2023/06/24 07:34:31;;;;;;;8.52;6.47;;;22.60;69.60;;;;;;5054440;28;20348;-48
2023/06/24 07:36:57;;;;;;;9.32;5.20;;;22.70;66.40;;;;;;5052556;28;20039;-52
2023/06/24 07:39:22;;;;;;;6.70;5.18;;;22.80;67.90;;;;;;5049923;28;20024;-49
2023/06/24 07:41:49;;;;;;;8.20;6.07;;;23.00;66.70;;;;;;5027839;28;20105;-50
2023/06/24 07:44:19;;;;;;;8.30;6.05;;;23.10;68.60;;;;;;5047807;28;20078;-49
2023/06/24 07:46:46;;;;;;;7.10;5.40;;;23.30;67.70;;;;;;5048523;28;20112;-51
2023/06/24 07:49:11;;;;;;;8.50;7.25;;;23.40;67.60;;;;;;5052554;28;20474;-48
2023/06/24 07:51:40;;;;;;;9.50;7.13;;;23.40;66.60;;;;;;5050696;28;20041;-49
2023/06/24 07:54:07;;;;;;;10.60;6.78;;;23.40;67.30;;;;;;5049520;28;20051;-49
2023/06/24 07:56:34;;;;;;;9.45;6.38;;;23.40;65.90;;;;;;5047125;28;20116;-49
2023/06/24 07:59:02;;;;;;;8.18;6.25;;;23.50;66.30;;;;;;5046971;28;20094;-53
2023/06/24 08:01:29;;;;;;;7.35;5.88;;;23.40;66.70;;;;;;5048608;28;20031;-49
2023/06/24 08:03:57;;;;;;;9.65;6.78;;;23.50;67.10;;;;;;5048721;28;20382;-50
2023/06/24 08:06:24;;;;;;;8.63;5.82;;;23.70;66.70;;;;;;5049843;28;20410;-52
2023/06/24 08:08:51;;;;;;;6.93;5.28;;;23.90;67.10;;;;;;5048040;28;20129;-54
2023/06/24 08:11:18;;;;;;;6.63;4.38;;;24.30;65.80;;;;;;5046615;28;20027;-52
2023/06/24 08:13:45;;;;;;;6.15;4.78;;;24.90;64.70;;;;;;5048693;28;20039;-49
2023/06/24 08:16:11;;;;;;;8.48;5.40;;;25.40;62.30;;;;;;5048314;28;20032;-51
2023/06/24 08:18:39;;;;;;;7.30;4.43;;;25.90;60.60;;;;;;5045660;28;20040;-49
2023/06/24 08:21:07;;;;;;;6.50;4.88;;;26.30;62.10;;;;;;5042482;28;20071;-51
2023/06/24 08:23:35;;;;;;;6.53;4.43;;;26.40;57.90;;;;;;5050302;28;20448;-52
2023/06/24 08:26:02;;;;;;;7.88;4.97;;;26.20;58.50;;;;;;5047847;28;20028;-49
2023/06/24 08:28:30;;;;;;;5.97;4.70;;;26.10;58.90;;;;;;5047498;28;20037;-49
2023/06/24 08:30:58;;;;;;;5.90;5.00;;;26.00;59.40;;;;;;5048599;28;20029;-49
2023/06/24 08:33:24;;;;;;;4.55;4.15;;;26.00;59.20;;;;;;5047780;28;20128;-51
2023/06/24 08:35:52;;;;;;;7.20;4.72;;;26.50;57.00;;;;;;5045245;28;20096;-50
2023/06/24 08:38:20;;;;;;;6.72;5.07;;;26.70;58.60;;;;;;5042609;28;20021;-54
2023/06/24 08:40:47;;;;;;;5.50;3.80;;;27.10;56.50;;;;;;5047661;28;20485;-50
2023/06/24 08:43:16;;;;;;;6.00;4.32;;;27.50;57.70;;;;;;5033218;28;20041;-50
2023/06/24 08:45:45;;;;;;;7.90;4.85;;;27.60;53.50;;;;;;5049890;28;20033;-51
2023/06/24 08:48:12;;;;;;;;;;;27.30;53.20;;;;;;5050657;28;20643;-49
2023/06/24 08:50:46;;;;;;;5.97;4.13;;;27.10;53.90;;;;;;5046730;28;19917;-50
2023/06/24 08:53:14;;;;;;;5.40;4.05;;;27.30;52.60;;;;;;5033478;28;20074;-52
2023/06/24 08:55:46;;;;;;;6.43;5.28;;;27.40;55.20;;;;;;5045288;28;20037;-54
2023/06/24 08:58:13;;;;;;;8.05;5.18;;;27.60;52.90;;;;;;5047074;28;20147;-49
2023/06/24 09:00:42;;;;;;;8.10;5.05;;;27.40;54.20;;;;;;5062547;28;20032;-50
2023/06/24 09:03:12;;;;;;;6.82;5.13;;;27.50;52.50;;;;;;5056293;28;20037;-52
2023/06/24 09:05:40;;;;;;;7.15;5.00;;;27.60;54.50;;;;;;5050172;28;20037;-49
2023/06/24 09:08:06;;;;;;;6.63;4.78;;;27.70;55.50;;;;;;5048371;28;20543;-54
2023/06/24 09:10:37;;;;;;;9.48;6.28;;;28.20;54.80;;;;;;5045883;28;20049;-50
2023/06/24 09:13:06;;;;;;;7.75;5.07;;;27.90;51.90;;;;;;5040829;28;20033;-52
2023/06/24 09:15:51;;;;;;;8.32;5.35;;;27.90;53.80;;;;;;5031198;28;20041;-49
2023/06/24 09:18:18;;;;;;;7.53;5.55;;;27.80;54.30;;;;;;5044222;28;20032;-50
2023/06/24 09:20:45;;;;;;;7.47;5.18;;;28.10;52.20;;;;;;5056914;28;20450;-49
2023/06/24 09:23:13;;;;;;;6.95;5.78;;;27.60;52.20;;;;;;5048222;28;20355;-53
2023/06/24 09:25:40;;;;;;;6.82;4.57;;;27.50;53.20;;;;;;5049587;28;20069;-51
2023/06/24 09:28:07;;;;;;;7.65;5.07;;;27.90;55.00;;;;;;5047072;28;20025;-52
2023/06/24 09:30:34;;;;;;;6.82;5.40;;;28.00;52.30;;;;;;5048611;28;20068;-51
2023/06/24 09:33:02;;;;;;;6.20;5.40;;;27.80;54.00;;;;;;5050598;28;20021;-49
2023/06/24 09:35:34;;;;;;;7.93;6.38;;;28.40;51.70;;;;;;5038386;28;20024;-52
2023/06/24 09:38:01;;;;;;;6.38;5.55;;;28.00;52.60;;;;;;5048529;28;20044;-50
2023/06/24 09:40:37;;;;;;;5.90;4.68;;;28.30;53.00;;;;;;5049210;28;20025;-50
2023/06/24 09:43:03;;;;;;;5.88;5.18;;;28.50;52.90;;;;;;5044628;28;20026;-52
2023/06/24 09:45:32;;;;;;;5.53;4.60;;;28.40;52.20;;;;;;5048889;28;20039;-51
2023/06/24 09:47:59;;;;;;;;;;;28.90;51.90;;;;;;5032677;28;20041;-51
2023/06/24 09:50:26;;;;;;;7.03;5.10;;;29.00;48.60;;;;;;5046869;28;19927;-50
2023/06/24 09:52:58;;;;;;;7.72;5.45;;;28.90;49.80;;;;;;5039574;28;20127;-50
2023/06/24 09:55:28;;;;;;;5.47;4.28;;;28.40;49.30;;;;;;5049619;28;20441;-50
2023/06/24 09:57:55;;;;;;;5.75;4.68;;;28.40;50.70;;;;;;5052643;28;20086;-55
2023/06/24 10:00:22;;;;;;;8.15;6.00;;;28.40;50.90;;;;;;5049640;28;20037;-54
2023/06/24 10:02:58;;;;;;;6.53;5.03;;;28.30;51.30;;;;;;5062394;28;20029;-56
2023/06/24 10:05:25;;;;;;;5.82;5.22;;;28.10;52.70;;;;;;5043284;28;20025;-51
2023/06/24 10:07:52;;;;;;;5.40;4.88;;;27.80;53.10;;;;;;5046865;28;20036;-53
2023/06/24 10:10:20;;;;;;;7.03;5.82;;;27.90;52.70;;;;;;5044061;28;20045;-50
2023/06/24 10:12:47;;;;;;;8.48;5.75;;;27.70;51.70;;;;;;5042511;28;20032;-53
2023/06/24 10:15:16;;;;;;;5.63;5.03;;;27.40;53.20;;;;;;5050389;28;20033;-56
2023/06/24 10:17:44;;;;;;;6.20;5.40;;;27.10;53.70;;;;;;5063439;28;20671;-52
2023/06/24 10:20:12;;;;;;;7.33;5.07;;;27.20;54.60;;;;;;5044500;28;20041;-50
2023/06/24 10:22:39;;;;;;;7.70;4.93;;;27.50;55.50;;;;;;5039292;28;20157;-50
2023/06/24 10:25:11;;;;;;;6.55;5.40;;;27.70;55.80;;;;;;5047388;28;20044;-53
2023/06/24 10:27:42;;;;;;;8.85;5.50;;;27.90;53.60;;;;;;5022889;28;20132;-53
2023/06/24 10:30:23;;;;;;;8.43;6.50;;;27.80;54.50;;;;;;5048394;28;20462;-53
2023/06/24 10:32:54;;;;;;;7.95;6.40;;;27.10;54.40;;;;;;5050477;28;20108;-50
2023/06/24 10:35:34;;;;;;;7.15;5.90;;;27.20;55.10;;;;;;5048422;28;20116;-50
2023/06/24 10:38:01;;;;;;;11.65;5.88;;;27.40;53.50;;;;;;5045788;28;20112;-50
2023/06/24 10:40:57;;;;;;;7.95;6.43;;;27.90;57.30;;;;;;5046947;28;20095;-51
2023/06/24 10:43:42;;;;;;;5.97;4.78;;;28.20;52.60;;;;;;5058798;28;20090;-57
2023/06/24 10:46:15;;;;;;;8.73;6.28;;;28.70;52.60;;;;;;5045822;28;20025;-50
2023/06/24 10:48:42;;;;;;;6.35;4.75;;;28.70;51.20;;;;;;5049335;28;20036;-54
2023/06/24 10:51:09;;;;;;;9.88;5.60;;;28.60;53.00;;;;;;5047832;28;20032;-57
2023/06/24 10:53:35;;;;;;;12.13;5.60;;;28.70;51.40;;;;;;5049829;28;20033;-51
2023/06/24 10:56:02;;;;;;;9.60;5.70;;;28.40;51.00;;;;;;5053416;28;20025;-51
2023/06/24 10:58:28;;;;;;;6.10;5.07;;;27.70;53.40;;;;;;5049718;28;20040;-51
2023/06/24 11:01:16;;;;;;;6.38;5.40;;;27.30;54.70;;;;;;5042236;28;20033;-52
2023/06/24 11:03:44;;;;;;;7.63;5.67;;;27.20;56.00;;;;;;5048111;28;20111;-52
2023/06/24 11:06:12;;;;;;;7.88;4.97;;;26.90;54.20;;;;;;5045966;28;20363;-50
2023/06/24 11:08:48;;;;;;;6.18;5.28;;;26.80;55.80;;;;;;5050759;28;20447;-49
2023/06/24 11:11:28;;;;;;;7.22;4.85;;;27.20;56.50;;;;;;5044644;28;20147;-52
2023/06/24 11:13:58;;;;;;;8.05;5.90;;;27.30;55.80;;;;;;5046745;28;20235;-53
2023/06/24 11:16:29;;;;;;;10.77;5.85;;;27.40;55.90;;;;;;5046560;28;20114;-53
2023/06/24 11:18:56;;;;;;;8.90;5.30;;;27.80;52.10;;;;;;5050396;28;20033;-50
2023/06/24 11:21:31;;;;;;;6.60;5.80;;;27.70;53.80;;;;;;5045476;28;20036;-52
2023/06/24 11:24:06;;;;;;;6.63;5.47;;;27.20;52.70;;;;;;5048517;28;20040;-53
2023/06/24 11:26:32;;;;;;;6.57;5.00;;;26.60;54.90;;;;;;5044150;28;20138;-49
2023/06/24 11:29:01;;;;;;;5.65;4.75;;;26.30;56.50;;;;;;5048218;28;20454;-49
2023/06/24 11:31:32;;;;;;;8.57;5.30;;;26.60;57.60;;;;;;5051735;28;20025;-51
2023/06/24 11:34:00;;;;;;;5.47;4.57;;;27.40;56.80;;;;;;5043521;28;20086;-51
2023/06/24 11:36:29;;;;;;;8.73;4.68;;;27.80;53.60;;;;;;5050900;28;20104;-50
2023/06/24 11:38:56;;;;;;;5.05;4.07;;;27.90;51.20;;;;;;5050793;28;20063;-49
2023/06/24 11:41:26;;;;;;;5.38;4.65;;;28.30;50.20;;;;;;5052311;28;20029;-52
2023/06/24 11:43:53;;;;;;;5.63;4.35;;;28.40;49.60;;;;;;5050092;28;20090;-53
2023/06/24 11:46:47;;;;;;;6.60;3.97;;;28.70;50.40;;;;;;5034273;28;20108;-50
2023/06/24 11:49:15;;;;;;;5.10;4.00;;;28.90;49.20;;;;;;5045124;28;20076;-52
2023/06/24 11:51:50;;;;;;;6.63;3.93;;;28.60;49.80;;;;;;5051392;28;20040;-53
2023/06/24 11:54:20;;;;;;;6.80;5.07;;;28.30;50.20;;;;;;5033016;28;20442;-55
2023/06/24 11:56:52;;;;;;;6.43;4.13;;;27.50;50.70;;;;;;5031375;28;20086;-52
2023/06/24 11:59:27;;;;;;;6.63;4.97;;;27.30;53.30;;;;;;5047433;28;20041;-53
2023/06/24 12:02:16;;;;;;;7.22;4.82;;;27.10;52.90;;;;;;5050680;28;20028;-50
2023/06/24 12:04:44;;;;;;;8.07;5.50;;;26.50;55.40;;;;;;5042060;28;20049;-50
2023/06/24 12:07:09;;;;;;;6.47;4.82;;;26.10;56.10;;;;;;5048687;28;20033;-50
2023/06/24 12:09:40;;;;;;;7.72;5.38;;;25.90;57.10;;;;;;5051906;28;20348;-53
2023/06/24 12:12:08;;;;;;;9.70;6.20;;;25.90;57.50;;;;;;5046233;28;20063;-51
2023/06/24 12:14:35;;;;;;;13.60;6.43;;;26.00;59.70;;;;;;5046612;28;20029;-51
2023/06/24 12:17:02;;;;;;;10.38;7.25;;;26.10;62.20;;;;;;5043619;28;20086;-50
2023/06/24 12:19:30;;;;;;;8.75;6.15;;;26.10;61.80;;;;;;5045892;28;20029;-50
2023/06/24 12:21:56;;;;;;;8.55;6.30;;;26.30;62.50;;;;;;5049226;28;20044;-52
2023/06/24 12:24:22;;;;;;;10.73;7.00;;;26.40;61.80;;;;;;5049102;28;20052;-49
2023/06/24 12:26:49;;;;;;;11.80;8.93;;;26.30;62.40;;;;;;5042560;28;20410;-51
2023/06/24 12:29:16;;;;;;;12.80;9.10;;;26.00;63.30;;;;;;5046735;28;20017;-53
2023/06/24 12:31:41;;;;;;;12.27;7.82;;;25.70;63.80;;;;;;5051008;28;20032;-50
2023/06/24 12:34:09;;;;;;;10.18;8.75;;;25.40;65.10;;;;;;5049451;28;20029;-50
2023/06/24 12:36:37;;;;;;;9.68;8.00;;;25.30;65.20;;;;;;5048858;28;20033;-48
2023/06/24 12:39:03;;;;;;;10.80;9.18;;;25.40;66.10;;;;;;5049609;28;20028;-52
2023/06/24 12:41:30;;;;;;;9.82;8.63;;;25.70;64.50;;;;;;5051321;28;20031;-52
2023/06/24 12:43:56;;;;;;;8.27;6.70;;;25.60;64.00;;;;;;5051421;28;20477;-50
2023/06/24 12:46:22;;;;;;;8.65;6.65;;;25.80;64.70;;;;;;5048781;28;20033;-51
2023/06/24 12:48:49;;;;;;;8.32;7.35;;;26.00;64.70;;;;;;5050105;28;20020;-50